createdAt,value
2022-11-20T00:01:30.689Z,64.68
2022-11-20T00:03:32.461Z,65.11
2022-11-20T00:05:35.075Z,64.75
2022-11-20T00:07:36.733Z,64.45
2022-11-20T00:09:38.426Z,64.07
2022-11-20T00:11:40.057Z,64.41
2022-11-20T00:13:42.000Z,63.76
2022-11-20T00:15:43.743Z,64.41
2022-11-20T00:17:45.486Z,63.93
2022-11-20T00:19:47.152Z,64.37
2022-11-20T00:21:48.835Z,63.91
2022-11-20T00:23:54.851Z,64.10
2022-11-20T00:25:57.008Z,64.08
2022-11-20T00:27:58.670Z,63.66
2022-11-20T00:30:00.396Z,64.16
2022-11-20T00:32:02.038Z,63.83
2022-11-20T00:34:03.774Z,64.05
2022-11-20T00:36:08.523Z,64.06
2022-11-20T00:38:10.365Z,63.42
2022-11-20T00:40:12.608Z,62.94
2022-11-20T00:42:14.377Z,62.95
2022-11-20T00:44:15.998Z,62.48
2022-11-20T00:46:20.315Z,61.93
2022-11-20T00:48:21.955Z,62.03
2022-11-20T00:50:23.679Z,62.06
2022-11-20T00:52:35.525Z,62.71
2022-11-20T00:54:37.167Z,62.96
2022-11-20T00:56:38.922Z,62.91
2022-11-20T00:58:42.694Z,62.60
2022-11-20T01:00:44.384Z,62.44
2022-11-20T01:02:46.065Z,62.78
2022-11-20T01:04:47.734Z,62.59
2022-11-20T01:06:49.485Z,61.92
2022-11-20T01:08:55.555Z,62.38
2022-11-20T01:11:11.638Z,61.62
2022-11-20T01:13:31.572Z,61.89
2022-11-20T01:15:35.166Z,60.82
2022-11-20T01:17:36.819Z,60.99
2022-11-20T01:19:38.611Z,61.04
2022-11-20T01:21:42.633Z,60.73
2022-11-20T01:23:45.669Z,60.85
2022-11-20T01:25:47.337Z,60.38
2022-11-20T01:27:49.060Z,60.18
2022-11-20T01:29:50.767Z,60.04
2022-11-20T01:31:53.652Z,60.01
2022-11-20T01:33:57.988Z,59.50
2022-11-20T01:36:06.966Z,59.85
2022-11-20T01:38:08.565Z,59.58
2022-11-20T01:40:10.978Z,59.69
2022-11-20T01:42:32.520Z,59.87
2022-11-20T01:44:46.166Z,59.74
2022-11-20T01:47:01.737Z,59.73
2022-11-20T01:49:32.835Z,59.80
2022-11-20T01:51:42.878Z,59.72
2022-11-20T01:53:45.283Z,59.96
2022-11-20T01:55:52.587Z,59.08
2022-11-20T01:57:54.414Z,58.59
2022-11-20T02:00:11.843Z,58.26
2022-11-20T02:02:13.515Z,58.05
2022-11-20T02:04:16.525Z,58.46
2022-11-20T02:06:26.857Z,58.08
2022-11-20T02:08:29.278Z,58.33
2022-11-20T02:10:31.418Z,58.00
2022-11-20T02:12:52.578Z,57.85
2022-11-20T02:14:54.242Z,57.93
2022-11-20T02:16:56.832Z,58.01
2022-11-20T02:19:01.377Z,57.94
2022-11-20T02:21:14.243Z,57.65
2022-11-20T02:23:40.901Z,57.33
2022-11-20T02:25:44.687Z,57.61
2022-11-20T02:27:46.377Z,57.97
2022-11-20T02:30:09.077Z,57.85
2022-11-20T02:32:23.593Z,57.85
2022-11-20T02:34:25.256Z,58.00
2022-11-20T02:36:29.196Z,58.01
2022-11-20T02:38:30.803Z,58.11
2022-11-20T02:40:32.452Z,58.23
2022-11-20T02:42:34.068Z,58.52
2022-11-20T02:44:35.732Z,58.33
2022-11-20T02:46:37.438Z,58.21
2022-11-20T02:48:39.116Z,57.68
2022-11-20T02:50:41.533Z,58.33
2022-11-20T02:52:51.996Z,58.21
2022-11-20T02:54:53.868Z,57.21
2022-11-20T02:56:55.601Z,56.99
2022-11-20T02:58:57.368Z,57.82
2022-11-20T03:00:59.069Z,58.03
2022-11-20T03:03:00.784Z,57.67
2022-11-20T03:05:02.455Z,57.44
2022-11-20T03:07:04.836Z,56.59
2022-11-20T03:09:06.753Z,56.27
2022-11-20T03:11:09.041Z,56.91
2022-11-20T03:13:10.765Z,56.07
2022-11-20T03:15:12.480Z,55.96
2022-11-20T03:17:14.127Z,56.01
2022-11-20T03:19:15.823Z,56.26
2022-11-20T03:21:17.589Z,56.76
2022-11-20T03:23:19.436Z,56.04
2022-11-20T03:25:21.158Z,56.74
2022-11-20T03:27:22.937Z,56.60
2022-11-20T03:29:24.660Z,56.43
2022-11-20T03:31:32.363Z,56.65
2022-11-20T03:33:34.075Z,56.91
2022-11-20T03:35:35.790Z,57.87
2022-11-20T03:37:37.470Z,57.41
2022-11-20T03:39:39.136Z,57.64
2022-11-20T03:41:43.144Z,58.29
2022-11-20T03:43:55.378Z,58.98
2022-11-20T03:45:57.827Z,59.56
2022-11-20T03:47:59.521Z,60.10
2022-11-20T03:50:01.174Z,61.00
2022-11-20T03:52:02.881Z,61.77
2022-11-20T03:54:07.648Z,61.96
2022-11-20T03:56:10.558Z,63.50
2022-11-20T03:58:12.325Z,64.75
2022-11-20T04:00:14.655Z,65.05
2022-11-20T04:02:16.339Z,65.55
2022-11-20T04:04:18.240Z,65.78
2022-11-20T04:06:28.894Z,66.85
2022-11-20T04:08:31.635Z,67.40
2022-11-20T04:10:33.283Z,67.44
2022-11-20T04:12:35.051Z,68.27
2022-11-20T04:14:37.162Z,68.98
2022-11-20T04:16:39.182Z,69.15
2022-11-20T04:18:40.822Z,70.15
2022-11-20T04:20:42.539Z,70.22
2022-11-20T04:22:54.079Z,70.65
2022-11-20T04:24:55.754Z,71.59
2022-11-20T04:26:57.477Z,72.24
2022-11-20T04:28:59.878Z,73.19
2022-11-20T04:31:06.900Z,73.05
2022-11-20T04:33:08.828Z,72.99
2022-11-20T04:35:10.493Z,73.45
2022-11-20T04:37:12.131Z,73.06
2022-11-20T04:39:16.419Z,74.03
2022-11-20T04:41:20.412Z,74.37
2022-11-20T04:43:22.023Z,75.03
2022-11-20T04:45:24.167Z,74.24
2022-11-20T04:47:25.887Z,74.41
2022-11-20T04:49:27.680Z,73.96
2022-11-20T04:51:29.656Z,74.60
2022-11-20T04:53:31.600Z,74.22
2022-11-20T04:55:33.269Z,74.71
2022-11-20T04:57:35.141Z,74.94
2022-11-20T04:59:36.796Z,74.03
2022-11-20T05:01:38.554Z,74.24
2022-11-20T05:03:42.742Z,74.78
2022-11-20T05:05:44.655Z,74.67
2022-11-20T05:07:46.341Z,74.97
2022-11-20T05:09:47.965Z,75.04
2022-11-20T05:11:51.628Z,75.18
2022-11-20T05:13:53.517Z,75.05
2022-11-20T05:15:55.496Z,75.45
2022-11-20T05:17:57.152Z,75.66
2022-11-20T05:19:58.873Z,75.81
2022-11-20T05:22:00.524Z,76.11
2022-11-20T05:24:02.194Z,76.01
2022-11-20T05:26:04.781Z,76.22
2022-11-20T05:28:06.483Z,75.43
2022-11-20T05:30:08.869Z,75.47
2022-11-20T05:32:10.838Z,75.07
2022-11-20T05:34:12.441Z,75.48
2022-11-20T05:36:15.809Z,76.57
2022-11-20T05:38:17.493Z,75.95
2022-11-20T05:40:19.272Z,76.25
2022-11-20T05:42:39.216Z,76.32
2022-11-20T05:44:41.022Z,75.85
2022-11-20T05:46:42.684Z,75.87
2022-11-20T05:48:45.461Z,75.92
2022-11-20T05:50:47.202Z,76.29
2022-11-20T05:52:52.140Z,76.24
2022-11-20T05:54:53.761Z,76.16
2022-11-20T05:56:55.376Z,77.00
2022-11-20T05:58:57.457Z,76.97
2022-11-20T06:01:26.410Z,77.16
2022-11-20T06:03:28.036Z,77.05
2022-11-20T06:05:29.690Z,77.87
2022-11-20T06:07:31.389Z,77.30
2022-11-20T06:09:33.247Z,77.55
2022-11-20T06:11:35.022Z,78.04
2022-11-20T06:13:41.806Z,78.29
2022-11-20T06:15:58.212Z,77.83
2022-11-20T06:18:00.097Z,78.25
2022-11-20T06:20:02.012Z,78.05
2022-11-20T06:22:03.677Z,78.92
2022-11-20T06:24:05.733Z,78.62
2022-11-20T06:26:09.889Z,78.28
2022-11-20T06:28:11.614Z,78.30
2022-11-20T06:30:13.688Z,79.57
2022-11-20T06:32:15.335Z,79.87
2022-11-20T06:34:17.150Z,79.28
2022-11-20T06:36:21.211Z,79.65
2022-11-20T06:38:23.157Z,80.17
2022-11-20T06:40:24.792Z,80.02
2022-11-20T06:42:26.458Z,79.30
2022-11-20T06:44:28.147Z,79.51
2022-11-20T06:46:29.808Z,79.64
2022-11-20T06:48:31.504Z,79.36
2022-11-20T06:50:33.306Z,78.76
2022-11-20T06:52:38.286Z,78.68
2022-11-20T06:54:42.479Z,78.92
2022-11-20T06:56:48.839Z,79.27
2022-11-20T06:58:50.512Z,79.56
2022-11-20T07:00:52.206Z,79.57
2022-11-20T07:02:55.265Z,79.14
2022-11-20T07:04:56.910Z,79.18
2022-11-20T07:06:58.567Z,79.16
2022-11-20T07:09:00.294Z,79.20
2022-11-20T07:11:04.701Z,79.14
2022-11-20T07:13:07.975Z,78.08
2022-11-20T07:15:09.765Z,79.32
2022-11-20T07:17:11.399Z,80.46
2022-11-20T07:19:13.101Z,80.59
2022-11-20T07:21:14.983Z,80.64
2022-11-20T07:23:16.722Z,80.33
2022-11-20T07:25:18.411Z,79.90
2022-11-20T07:27:20.029Z,80.37
2022-11-20T07:29:21.910Z,79.78
2022-11-20T07:31:23.850Z,80.41
2022-11-20T07:33:25.645Z,80.08
2022-11-20T07:35:27.272Z,79.98
2022-11-20T07:37:28.931Z,80.13
2022-11-20T07:39:30.552Z,80.02
2022-11-20T07:41:32.404Z,80.04
2022-11-20T07:43:38.495Z,80.27
2022-11-20T07:45:42.609Z,80.07
2022-11-20T07:47:44.292Z,79.67
2022-11-20T07:49:46.040Z,79.88
2022-11-20T07:51:51.771Z,80.13
2022-11-20T07:53:54.158Z,79.91
2022-11-20T07:55:55.766Z,80.04
2022-11-20T07:57:58.728Z,79.25
2022-11-20T08:00:00.404Z,79.93
2022-11-20T08:02:02.176Z,80.43
2022-11-20T08:04:04.192Z,80.08
2022-11-20T08:06:06.504Z,79.89
2022-11-20T08:08:08.811Z,79.85
2022-11-20T08:10:13.699Z,79.91
2022-11-20T08:12:41.081Z,80.23
2022-11-20T08:14:42.743Z,79.23
2022-11-20T08:16:49.167Z,79.13
2022-11-20T08:18:50.840Z,79.10
2022-11-20T08:20:52.551Z,78.21
2022-11-20T08:22:58.213Z,78.04
2022-11-20T08:25:00.067Z,78.13
2022-11-20T08:27:01.740Z,78.39
2022-11-20T08:29:04.562Z,77.47
2022-11-20T08:31:06.372Z,78.17
2022-11-20T08:33:10.128Z,77.62
2022-11-20T08:35:11.829Z,77.20
2022-11-20T08:37:13.461Z,76.74
2022-11-20T08:39:15.708Z,77.50
2022-11-20T08:41:31.793Z,77.10
2022-11-20T08:43:33.476Z,76.91
2022-11-20T08:45:35.631Z,76.76
2022-11-20T08:47:37.494Z,77.26
2022-11-20T08:49:39.222Z,77.11
2022-11-20T08:51:41.840Z,76.83
2022-11-20T08:53:43.753Z,76.60
2022-11-20T08:55:45.414Z,76.67
2022-11-20T08:57:50.858Z,76.86
2022-11-20T09:00:09.071Z,76.78
2022-11-20T09:02:10.951Z,76.12
2022-11-20T09:04:14.633Z,75.71
2022-11-20T09:06:17.271Z,75.64
2022-11-20T09:08:18.941Z,75.50
2022-11-20T09:10:24.935Z,74.68
2022-11-20T09:12:26.925Z,75.71
2022-11-20T09:14:30.330Z,75.79
2022-11-20T09:16:32.001Z,76.21
2022-11-20T09:18:36.995Z,76.00
2022-11-20T09:20:38.905Z,75.88
2022-11-20T09:22:41.718Z,76.10
2022-11-20T09:24:43.880Z,75.96
2022-11-20T09:26:45.885Z,75.61
2022-11-20T09:28:47.755Z,75.54
2022-11-20T09:30:49.412Z,74.68
2022-11-20T09:33:00.733Z,74.58
2022-11-20T09:35:03.076Z,75.14
2022-11-20T09:37:14.829Z,75.34
2022-11-20T09:39:26.115Z,74.57
2022-11-20T09:41:41.217Z,74.18
2022-11-20T09:44:08.016Z,75.14
2022-11-20T09:46:30.792Z,74.25
2022-11-20T09:49:04.654Z,74.79
2022-11-20T09:51:36.969Z,74.55
2022-11-20T09:53:56.957Z,74.34
2022-11-20T09:56:02.470Z,74.25
2022-11-20T09:58:39.360Z,74.18
2022-11-20T10:00:45.911Z,73.73
2022-11-20T10:03:14.683Z,73.64
2022-11-20T10:05:21.672Z,73.78
2022-11-20T10:07:32.653Z,73.70
2022-11-20T10:09:44.121Z,73.20
2022-11-20T10:12:06.579Z,72.80
2022-11-20T10:14:10.914Z,73.22
2022-11-20T10:16:28.065Z,73.29
2022-11-20T10:18:38.522Z,73.55
2022-11-20T10:20:50.249Z,72.50
2022-11-20T10:23:13.046Z,72.64
2022-11-20T10:25:42.166Z,72.46
2022-11-20T10:28:10.795Z,71.79
2022-11-20T10:30:15.899Z,72.37
2022-11-20T10:32:21.404Z,72.02
2022-11-20T10:34:35.582Z,71.63
2022-11-20T10:36:47.260Z,71.39
2022-11-20T10:38:58.102Z,71.08
2022-11-20T10:41:21.327Z,70.97
2022-11-20T10:43:37.168Z,69.57
2022-11-20T10:45:48.764Z,69.67
2022-11-20T10:47:51.133Z,69.04
2022-11-20T10:49:56.454Z,69.33
2022-11-20T10:52:11.384Z,69.31
2022-11-20T10:54:28.530Z,68.77
2022-11-20T10:56:48.373Z,68.59
2022-11-20T10:59:24.567Z,68.69
2022-11-20T11:01:28.207Z,67.32
2022-11-20T11:03:32.314Z,67.51
2022-11-20T11:05:42.831Z,67.62
2022-11-20T11:07:46.361Z,67.92
2022-11-20T11:09:52.986Z,68.30
2022-11-20T11:11:54.608Z,68.32
2022-11-20T11:14:16.762Z,67.47
2022-11-20T11:16:28.447Z,67.10
2022-11-20T11:18:33.740Z,67.40
2022-11-20T11:20:35.483Z,67.30
2022-11-20T11:23:02.059Z,67.02
2022-11-20T11:25:03.939Z,66.67
2022-11-20T11:27:16.874Z,67.77
2022-11-20T11:29:19.608Z,67.68
2022-11-20T11:31:29.444Z,67.63
2022-11-20T11:33:34.769Z,67.13
2022-11-20T11:35:49.708Z,67.91
2022-11-20T11:37:55.260Z,66.80
2022-11-20T11:40:22.964Z,65.70
2022-11-20T11:42:20.683Z,65.93
2022-11-20T11:44:54.324Z,65.14
2022-11-20T11:46:59.354Z,63.92
2022-11-20T11:49:23.007Z,64.46
2022-11-20T11:51:30.938Z,64.16
2022-11-20T11:53:34.913Z,62.89
2022-11-20T11:55:43.503Z,62.47
2022-11-20T11:58:01.537Z,61.00
2022-11-20T12:00:22.767Z,60.87
2022-11-20T12:02:33.945Z,59.36
2022-11-20T12:04:52.884Z,58.66
2022-11-20T12:07:45.066Z,58.08
2022-11-20T12:09:47.418Z,58.44
2022-11-20T12:12:08.153Z,57.76
2022-11-20T12:14:25.216Z,57.30
2022-11-20T12:16:27.432Z,58.20
2022-11-20T12:18:30.653Z,56.56
2022-11-20T12:20:42.869Z,56.43
2022-11-20T12:23:26.737Z,55.95
2022-11-20T12:25:37.752Z,55.97
2022-11-20T12:28:14.369Z,54.54
2022-11-20T12:30:17.839Z,52.37
2022-11-20T12:32:59.980Z,53.53
2022-11-20T12:35:39.144Z,54.17
2022-11-20T12:37:40.776Z,52.24
2022-11-20T12:39:43.604Z,52.04
2022-11-20T12:42:09.962Z,52.54
2022-11-20T12:44:48.333Z,51.71
2022-11-20T12:47:05.039Z,51.11
2022-11-20T12:49:19.182Z,51.55
2022-11-20T12:51:49.165Z,50.96
2022-11-20T12:54:07.917Z,51.12
2022-11-20T12:56:29.924Z,49.99
2022-11-20T12:58:57.738Z,49.86
2022-11-20T13:01:40.851Z,49.42
2022-11-20T13:03:52.893Z,49.47
2022-11-20T13:05:58.035Z,48.73
2022-11-20T13:08:02.367Z,49.58
2022-11-20T13:10:12.739Z,49.52
2022-11-20T13:12:17.592Z,49.22
2022-11-20T13:14:38.542Z,48.13
2022-11-20T13:17:06.266Z,48.49
2022-11-20T13:19:14.729Z,47.73
2022-11-20T13:21:23.656Z,48.64
2022-11-20T13:23:29.209Z,47.66
2022-11-20T13:25:35.993Z,47.18
2022-11-20T13:27:48.517Z,48.67
2022-11-20T13:30:15.533Z,48.45
2022-11-20T13:32:19.939Z,48.96
2022-11-20T13:34:27.128Z,48.36
2022-11-20T13:36:31.284Z,47.85
2022-11-20T13:38:46.278Z,48.08
2022-11-20T13:40:57.275Z,48.07
2022-11-20T13:43:29.340Z,48.23
2022-11-20T13:45:33.155Z,48.63
2022-11-20T13:47:37.013Z,48.44
2022-11-20T13:49:45.147Z,48.50
2022-11-20T13:51:53.030Z,47.92
2022-11-20T13:54:18.887Z,49.74
2022-11-20T13:56:35.428Z,50.33
2022-11-20T13:59:05.153Z,49.83
2022-11-20T14:01:10.052Z,49.29
2022-11-20T14:03:43.984Z,50.26
2022-11-20T14:06:00.015Z,50.06
2022-11-20T14:08:05.189Z,49.82
2022-11-20T14:10:07.333Z,50.18
2022-11-20T14:12:20.924Z,49.38
2022-11-20T14:14:30.673Z,50.16
2022-11-20T14:16:38.098Z,50.18
2022-11-20T14:18:39.797Z,50.64
2022-11-20T14:20:43.322Z,50.71
2022-11-20T14:22:58.015Z,50.42
2022-11-20T14:25:28.379Z,51.01
2022-11-20T14:27:30.673Z,51.27
2022-11-20T14:29:39.854Z,51.51
2022-11-20T14:31:43.191Z,51.74
2022-11-20T14:33:44.853Z,51.71
2022-11-20T14:35:51.959Z,52.00
2022-11-20T14:37:54.917Z,51.55
2022-11-20T14:39:59.839Z,50.91
2022-11-20T14:42:01.756Z,50.58
2022-11-20T14:44:05.278Z,51.59
2022-11-20T14:46:10.933Z,51.00
2022-11-20T14:48:12.907Z,51.67
2022-11-20T14:50:25.309Z,51.60
2022-11-20T14:52:28.588Z,52.56
2022-11-20T14:54:31.772Z,52.93
2022-11-20T14:56:33.451Z,52.91
2022-11-20T14:58:35.423Z,52.91
2022-11-20T15:00:38.166Z,53.97
2022-11-20T15:02:52.619Z,54.07
2022-11-20T15:05:04.325Z,55.34
2022-11-20T15:07:06.113Z,55.66
2022-11-20T15:09:16.033Z,56.76
2022-11-20T15:11:21.751Z,55.94
2022-11-20T15:13:40.073Z,56.23
2022-11-20T15:15:46.678Z,56.85
2022-11-20T15:17:48.530Z,56.21
2022-11-20T15:19:50.434Z,57.07
2022-11-20T15:21:52.528Z,57.26
2022-11-20T15:23:54.765Z,57.68
2022-11-20T15:25:57.020Z,57.27
2022-11-20T15:27:58.672Z,57.14
2022-11-20T15:30:00.428Z,56.80
2022-11-20T15:32:02.219Z,56.92
2022-11-20T15:34:04.033Z,57.37
2022-11-20T15:36:05.900Z,57.45
2022-11-20T15:38:07.721Z,56.94
2022-11-20T15:40:10.235Z,57.82
2022-11-20T15:42:11.888Z,57.80
2022-11-20T15:44:13.850Z,58.05
2022-11-20T15:46:18.271Z,58.79
2022-11-20T15:48:28.527Z,59.23
2022-11-20T15:50:40.217Z,59.50
2022-11-20T15:52:51.757Z,59.62
2022-11-20T15:54:53.500Z,59.04
2022-11-20T15:56:55.554Z,59.48
2022-11-20T15:58:57.230Z,59.77
2022-11-20T16:00:58.992Z,59.22
2022-11-20T16:03:00.742Z,59.92
2022-11-20T16:05:02.389Z,60.03
2022-11-20T16:07:04.187Z,60.13
2022-11-20T16:09:05.951Z,60.14
2022-11-20T16:11:07.628Z,60.98
2022-11-20T16:13:36.438Z,60.64
2022-11-20T16:15:47.486Z,61.27
2022-11-20T16:17:49.244Z,61.87
2022-11-20T16:19:50.927Z,61.85
2022-11-20T16:21:52.628Z,61.64
2022-11-20T16:23:54.889Z,61.58
2022-11-20T16:25:56.615Z,62.12
2022-11-20T16:27:58.339Z,61.95
2022-11-20T16:30:00.052Z,62.81
2022-11-20T16:32:01.712Z,63.02
2022-11-20T16:34:11.812Z,63.71
2022-11-20T16:36:16.123Z,63.55
2022-11-20T16:38:17.846Z,63.85
2022-11-20T16:40:19.517Z,63.34
2022-11-20T16:42:21.262Z,63.58
2022-11-20T16:44:23.299Z,63.33
2022-11-20T16:46:27.379Z,63.50
2022-11-20T16:48:29.027Z,63.85
2022-11-20T16:50:30.802Z,62.79
2022-11-20T16:52:32.676Z,62.67
2022-11-20T16:54:34.393Z,62.53
2022-11-20T16:56:36.827Z,62.71
2022-11-20T16:58:38.499Z,62.40
2022-11-20T17:00:41.039Z,62.95
2022-11-20T17:02:42.678Z,62.67
2022-11-20T17:04:44.353Z,62.47
2022-11-20T17:06:46.113Z,63.11
2022-11-20T17:08:48.705Z,62.77
2022-11-20T17:10:50.436Z,63.20
2022-11-20T17:12:52.422Z,62.81
2022-11-20T17:14:54.027Z,62.92
2022-11-20T17:16:55.677Z,63.34
2022-11-20T17:19:03.018Z,62.70
2022-11-20T17:21:06.013Z,62.14
2022-11-20T17:23:07.668Z,62.15
2022-11-20T17:25:09.467Z,62.26
2022-11-20T17:27:11.209Z,61.28
2022-11-20T17:29:18.174Z,61.14
2022-11-20T17:31:19.868Z,61.02
2022-11-20T17:33:21.579Z,61.14
2022-11-20T17:35:23.224Z,61.40
2022-11-20T17:37:24.927Z,61.51
2022-11-20T17:39:26.677Z,61.71
2022-11-20T17:41:30.076Z,61.70
2022-11-20T17:43:35.721Z,61.26
2022-11-20T17:45:37.930Z,61.17
2022-11-20T17:47:39.650Z,61.61
2022-11-20T17:49:41.266Z,61.15
2022-11-20T17:51:42.934Z,61.00
2022-11-20T17:53:46.588Z,61.04
2022-11-20T17:56:16.524Z,61.03
2022-11-20T17:58:18.971Z,61.22
2022-11-20T18:00:21.274Z,60.93
2022-11-20T18:02:23.439Z,61.61
2022-11-20T18:04:25.503Z,61.25
2022-11-20T18:06:29.095Z,61.06
2022-11-20T18:08:30.723Z,61.27
2022-11-20T18:10:32.552Z,61.26
2022-11-20T18:12:34.351Z,61.49
2022-11-20T18:14:36.682Z,61.24
2022-11-20T18:16:46.083Z,60.67
2022-11-20T18:18:47.796Z,61.32
2022-11-20T18:20:54.322Z,61.39
2022-11-20T18:22:55.916Z,61.14
2022-11-20T18:24:57.581Z,60.96
2022-11-20T18:26:59.650Z,60.79
2022-11-20T18:29:07.166Z,61.28
2022-11-20T18:31:09.847Z,61.45
2022-11-20T18:33:11.536Z,61.40
2022-11-20T18:35:13.175Z,61.55
2022-11-20T18:37:16.587Z,61.20
2022-11-20T18:39:18.492Z,61.03
2022-11-20T18:41:40.715Z,60.99
2022-11-20T18:44:08.320Z,61.21
2022-11-20T18:46:10.517Z,60.77
2022-11-20T18:48:12.399Z,61.43
2022-11-20T18:50:14.177Z,60.76
2022-11-20T18:52:15.881Z,61.09
2022-11-20T18:54:17.510Z,61.43
2022-11-20T18:56:19.140Z,61.57
2022-11-20T18:58:20.815Z,61.54
2022-11-20T19:00:23.178Z,61.65
2022-11-20T19:02:27.267Z,61.04
2022-11-20T19:04:30.475Z,60.96
2022-11-20T19:06:32.316Z,61.25
2022-11-20T19:08:37.043Z,61.21
2022-11-20T19:10:38.763Z,61.40
2022-11-20T19:12:42.885Z,61.11
2022-11-20T19:14:44.857Z,61.20
2022-11-20T19:16:46.708Z,61.19
2022-11-20T19:18:49.411Z,61.49
2022-11-20T19:20:51.121Z,61.02
2022-11-20T19:22:54.766Z,61.49
2022-11-20T19:24:56.564Z,61.37
2022-11-20T19:26:58.321Z,60.75
2022-11-20T19:29:00.030Z,61.24
2022-11-20T19:31:07.252Z,61.56
2022-11-20T19:33:09.028Z,61.05
2022-11-20T19:35:10.746Z,61.32
2022-11-20T19:37:12.485Z,60.77
2022-11-20T19:39:14.369Z,60.89
2022-11-20T19:41:18.582Z,61.18
2022-11-20T19:43:20.567Z,60.82
2022-11-20T19:45:22.271Z,60.38
2022-11-20T19:47:35.404Z,60.31
2022-11-20T19:49:46.452Z,60.63
2022-11-20T19:51:49.290Z,60.80
2022-11-20T19:53:51.800Z,60.32
2022-11-20T19:56:00.449Z,60.78
2022-11-20T19:58:03.327Z,60.60
2022-11-20T20:00:05.465Z,60.43
2022-11-20T20:02:07.179Z,61.32
2022-11-20T20:04:09.076Z,61.01
2022-11-20T20:06:16.381Z,61.13
2022-11-20T20:08:18.002Z,61.08
2022-11-20T20:10:20.460Z,60.72
2022-11-20T20:12:22.085Z,60.62
2022-11-20T20:14:23.765Z,61.07
2022-11-20T20:16:26.546Z,60.97
2022-11-20T20:18:28.230Z,60.89
2022-11-20T20:20:29.954Z,61.07
2022-11-20T20:22:31.579Z,61.12
2022-11-20T20:24:33.242Z,61.53
2022-11-20T20:26:34.828Z,61.65
2022-11-20T20:28:37.427Z,61.27
2022-11-20T20:30:39.143Z,61.45
2022-11-20T20:32:55.846Z,62.00
2022-11-20T20:34:58.004Z,61.86
2022-11-20T20:36:59.688Z,62.55
2022-11-20T20:39:02.906Z,62.18
2022-11-20T20:41:05.265Z,61.83
2022-11-20T20:43:06.937Z,62.37
2022-11-20T20:45:11.033Z,62.48
2022-11-20T20:47:12.705Z,62.60
2022-11-20T20:49:14.305Z,63.27
2022-11-20T20:51:16.252Z,62.74
2022-11-20T20:53:17.891Z,62.80
2022-11-20T20:55:19.538Z,63.42
2022-11-20T20:57:24.563Z,62.76
2022-11-20T20:59:26.365Z,63.62
2022-11-20T21:01:29.034Z,63.31
2022-11-20T21:03:35.858Z,63.20
2022-11-20T21:05:37.552Z,63.19
2022-11-20T21:07:59.129Z,63.00
2022-11-20T21:10:00.799Z,62.94
2022-11-20T21:12:02.424Z,63.64
2022-11-20T21:14:04.189Z,63.31
2022-11-20T21:16:08.638Z,63.70
2022-11-20T21:18:10.617Z,64.28
2022-11-20T21:20:31.206Z,64.09
2022-11-20T21:22:36.440Z,64.43
2022-11-20T21:24:38.485Z,64.04
2022-11-20T21:26:48.568Z,64.82
2022-11-20T21:28:50.439Z,64.21
2022-11-20T21:30:52.192Z,64.29
2022-11-20T21:33:00.257Z,64.98
2022-11-20T21:35:02.061Z,64.74
2022-11-20T21:37:03.683Z,64.30
2022-11-20T21:39:05.771Z,64.29
2022-11-20T21:41:33.867Z,64.68
2022-11-20T21:44:23.591Z,63.92
2022-11-20T21:46:35.525Z,64.17
2022-11-20T21:49:00.351Z,64.03
2022-11-20T21:51:10.331Z,63.36
2022-11-20T21:53:33.819Z,64.16
2022-11-20T21:55:35.552Z,63.89
2022-11-20T21:57:37.304Z,64.31
2022-11-20T21:59:38.936Z,63.92
2022-11-20T22:01:41.560Z,63.87
2022-11-20T22:03:47.045Z,64.00
2022-11-20T22:05:56.624Z,63.62
2022-11-20T22:07:58.282Z,63.63
2022-11-20T22:09:59.910Z,63.18
2022-11-20T22:12:01.500Z,63.50
2022-11-20T22:14:22.133Z,63.95
2022-11-20T22:16:24.659Z,63.78
2022-11-20T22:18:26.428Z,63.85
2022-11-20T22:20:28.100Z,63.67
2022-11-20T22:22:29.694Z,63.92
2022-11-20T22:24:32.092Z,64.26
2022-11-20T22:26:40.023Z,64.05
2022-11-20T22:28:42.812Z,64.62
2022-11-20T22:30:44.433Z,63.85
2022-11-20T22:32:56.523Z,64.28
2022-11-20T22:34:58.130Z,64.91
2022-11-20T22:36:59.765Z,64.16
2022-11-20T22:39:02.750Z,64.41
2022-11-20T22:41:06.099Z,64.17
2022-11-20T22:43:07.772Z,64.50
2022-11-20T22:45:09.948Z,64.18
2022-11-20T22:47:11.724Z,64.00
2022-11-20T22:49:13.416Z,64.41
2022-11-20T22:51:16.958Z,64.53
2022-11-20T22:53:18.635Z,64.56
2022-11-20T22:55:20.315Z,64.40
2022-11-20T22:57:21.930Z,64.83
2022-11-20T22:59:23.558Z,63.72
2022-11-20T23:01:28.061Z,64.09
2022-11-20T23:03:29.729Z,63.97
2022-11-20T23:05:32.614Z,64.53
2022-11-20T23:07:39.686Z,64.46
2022-11-20T23:09:42.518Z,64.85
2022-11-20T23:11:44.169Z,64.52
2022-11-20T23:13:46.934Z,64.78
2022-11-20T23:15:48.631Z,64.61
2022-11-20T23:17:50.303Z,65.38
2022-11-20T23:19:54.894Z,65.52
2022-11-20T23:21:56.524Z,65.55
2022-11-20T23:23:58.960Z,65.62
2022-11-20T23:26:02.640Z,65.81
2022-11-20T23:28:04.488Z,66.10
2022-11-20T23:30:06.732Z,65.97
2022-11-20T23:32:08.413Z,65.46
2022-11-20T23:34:10.653Z,65.28
2022-11-20T23:36:12.929Z,65.28
2022-11-20T23:38:14.565Z,65.51
2022-11-20T23:40:16.299Z,65.87
2022-11-20T23:42:17.999Z,66.00
2022-11-20T23:44:19.664Z,66.46
2022-11-20T23:46:21.384Z,66.31
2022-11-20T23:48:26.254Z,66.18
2022-11-20T23:50:27.910Z,65.77
2022-11-20T23:52:29.522Z,66.27
2022-11-20T23:54:31.230Z,66.23
2022-11-20T23:56:35.945Z,66.77
2022-11-20T23:58:38.883Z,66.78
